Time;durP1;ratioP1;P1;durP2;ratioP2;P2;SDS_P1;SDS_P2;PMS_P1;PMS_P2;Temp;Humidity;BMP_temperature;BMP_pressure;BME280_temperature;BME280_humidity;BME280_pressure;Samples;Min_cycle;Max_cycle;Signal;HPM_P1;HPM_P2
2022/07/07 08:55:02;;;;;;;2.43;1.67;;;;;;;;;;5394692;23;21077;-74
2022/07/07 08:57:29;;;;;;;2.67;2.10;;;;;;;;;;4956229;29;20765;-66
2022/07/07 08:59:57;;;;;;;6.10;1.90;;;;;;;;;;4954448;29;20462;-65
2022/07/07 09:02:24;;;;;;;3.70;1.80;;;;;;;;;;4955249;29;20439;-65
2022/07/07 09:04:52;;;;;;;3.00;1.63;;;;;;;;;;4955579;29;20526;-64
2022/07/07 09:07:20;;;;;;;2.33;1.60;;;;;;;;;;4955983;29;20493;-63
2022/07/07 09:09:49;;;;;;;2.40;1.33;;;;;;;;;;4955486;29;20518;-64
2022/07/07 09:12:19;;;;;;;2.80;1.97;;;;;;;;;;4955967;29;20438;-63
2022/07/07 09:14:47;;;;;;;10.47;1.80;;;;;;;;;;4955615;29;20501;-66
2022/07/07 09:17:16;;;;;;;2.63;1.53;;;;;;;;;;4955497;29;20453;-65
2022/07/07 09:19:43;;;;;;;5.80;1.80;;;;;;;;;;4955572;29;20446;-65
2022/07/07 09:22:11;;;;;;;3.43;1.90;;;;;;;;;;4955762;29;20898;-77
2022/07/07 09:24:53;;;;;;;5.60;2.47;;;;;;;;;;4955811;29;20446;-73
2022/07/07 09:27:22;;;;;;;3.83;1.63;;;;;;;;;;4955413;29;20471;-73
2022/07/07 09:29:49;;;;;;;4.50;1.70;;;;;;;;;;4955905;29;20490;-63
2022/07/07 09:32:16;;;;;;;8.40;1.83;;;;;;;;;;4955853;29;20453;-64
2022/07/07 09:34:44;;;;;;;1.87;1.50;;;;;;;;;;4955388;29;20542;-64
2022/07/07 09:39:57;;;;;;;4.03;1.63;;;;;;;;;;4955478;29;20441;-64
2022/07/07 09:42:26;;;;;;;1.90;1.50;;;;;;;;;;4955505;29;20454;-64
2022/07/07 09:44:55;;;;;;;5.90;1.83;;;;;;;;;;4955919;29;20460;-64
2022/07/07 09:47:23;;;;;;;5.40;2.17;;;;;;;;;;4955676;29;20862;-63
2022/07/07 09:50:00;;;;;;;5.60;2.37;;;;;;;;;;4955171;29;20991;-64
2022/07/07 09:52:28;;;;;;;5.63;1.87;;;;;;;;;;4955726;29;20533;-64
2022/07/07 09:54:55;;;;;;;3.80;1.50;;;;;;;;;;4955726;28;20485;-64
2022/07/07 09:57:22;;;;;;;4.20;1.47;;;;;;;;;;4961940;29;20533;-64
2022/07/07 09:59:51;;;;;;;2.07;1.50;;;;;;;;;;4962160;28;20544;-63
2022/07/07 10:02:20;;;;;;;1.47;1.20;;;;;;;;;;4961723;29;20543;-64
2022/07/07 10:04:49;;;;;;;1.93;1.23;;;;;;;;;;4962209;29;20451;-63
2022/07/07 10:07:18;;;;;;;6.10;2.50;;;;;;;;;;4961732;28;20799;-64
2022/07/07 10:09:46;;;;;;;3.50;1.50;;;;;;;;;;4961723;28;20484;-64
2022/07/07 10:12:15;;;;;;;1.77;1.20;;;;;;;;;;4961754;29;20556;-64
2022/07/07 10:14:43;;;;;;;1.97;1.13;;;;;;;;;;4961843;29;20804;-64
2022/07/07 10:17:16;;;;;;;2.97;1.67;;;;;;;;;;4961678;29;20607;-64
2022/07/07 10:19:44;;;;;;;1.93;1.10;;;;;;;;;;4962189;28;20454;-63
2022/07/07 10:22:12;;;;;;;2.03;1.23;;;;;;;;;;4962019;29;20538;-64
2022/07/07 10:24:40;;;;;;;3.03;1.53;;;;;;;;;;4961711;29;20450;-64
2022/07/07 10:27:07;;;;;;;2.80;1.83;;;;;;;;;;4961483;29;20513;-64
2022/07/07 10:29:38;;;;;;;3.60;1.50;;;;;;;;;;4961994;28;20555;-63
2022/07/07 10:32:06;;;;;;;3.13;1.37;;;;;;;;;;4961148;28;20528;-63
2022/07/07 10:34:37;;;;;;;2.60;1.50;;;;;;;;;;4961217;29;20442;-63
2022/07/07 10:37:05;;;;;;;1.50;1.30;;;;;;;;;;4961146;28;20522;-64
2022/07/07 10:39:34;;;;;;;1.73;1.10;;;;;;;;;;4961085;28;20459;-63
2022/07/07 10:42:04;;;;;;;2.67;1.30;;;;;;;;;;4961093;28;20960;-64
2022/07/07 10:44:32;;;;;;;1.90;1.60;;;;;;;;;;4961801;28;20435;-63
2022/07/07 10:47:00;;;;;;;1.37;1.23;;;;;;;;;;4961122;29;20479;-63
2022/07/07 10:49:39;;;;;;;1.40;1.20;;;;;;;;;;4961255;29;20559;-64
2022/07/07 10:52:11;;;;;;;1.77;1.40;;;;;;;;;;4961366;29;20438;-63
2022/07/07 10:54:38;;;;;;;1.57;1.43;;;;;;;;;;4961250;28;20533;-64
2022/07/07 10:57:16;;;;;;;3.57;1.70;;;;;;;;;;4961017;28;20541;-64
2022/07/07 11:00:06;;;;;;;5.03;1.53;;;;;;;;;;4961308;28;20465;-64
2022/07/07 11:02:34;;;;;;;1.63;1.50;;;;;;;;;;4961564;29;20436;-64
2022/07/07 11:05:03;;;;;;;2.83;1.47;;;;;;;;;;4961089;29;21037;-64
2022/07/07 11:07:30;;;;;;;3.03;1.63;;;;;;;;;;4958806;28;20531;-64
2022/07/07 11:09:58;;;;;;;3.27;1.33;;;;;;;;;;4958224;29;20525;-63
2022/07/07 11:12:35;;;;;;;1.53;1.30;;;;;;;;;;4958174;29;20522;-64
2022/07/07 11:15:32;;;;;;;1.40;1.30;;;;;;;;;;4957762;29;20451;-64
2022/07/07 11:18:09;;;;;;;1.60;1.50;;;;;;;;;;4898672;29;20450;-64
2022/07/07 11:20:51;;;;;;;1.33;1.10;;;;;;;;;;4948326;29;20464;-64
2022/07/07 11:23:18;;;;;;;1.80;1.17;;;;;;;;;;4957585;29;20456;-63
2022/07/07 11:25:46;;;;;;;1.80;1.27;;;;;;;;;;4957883;29;20531;-63
2022/07/07 11:28:14;;;;;;;2.80;1.80;;;;;;;;;;4957872;29;20456;-63
2022/07/07 11:30:41;;;;;;;1.60;1.50;;;;;;;;;;4957476;29;20485;-64
2022/07/07 11:33:09;;;;;;;2.67;1.80;;;;;;;;;;4957682;29;20494;-63
2022/07/07 11:35:40;;;;;;;3.93;1.70;;;;;;;;;;4958427;29;20443;-63
2022/07/07 11:38:08;;;;;;;4.10;1.87;;;;;;;;;;4958079;29;20490;-65
2022/07/07 11:40:38;;;;;;;2.77;1.40;;;;;;;;;;4957624;29;20550;-63
2022/07/07 11:43:05;;;;;;;1.33;1.23;;;;;;;;;;4957231;29;21027;-64
2022/07/07 11:45:33;;;;;;;4.60;1.50;;;;;;;;;;4957534;29;20539;-63
2022/07/07 11:48:01;;;;;;;2.33;1.20;;;;;;;;;;4957046;29;20528;-64
2022/07/07 11:50:31;;;;;;;2.43;1.50;;;;;;;;;;4957593;29;20593;-63
2022/07/07 11:53:00;;;;;;;2.83;1.50;;;;;;;;;;4957707;29;20443;-63
2022/07/07 11:55:28;;;;;;;1.50;1.40;;;;;;;;;;4957437;29;20569;-63
2022/07/07 11:57:56;;;;;;;1.80;1.27;;;;;;;;;;4957227;29;20618;-63
2022/07/07 12:00:24;;;;;;;3.53;1.30;;;;;;;;;;4957122;29;20448;-64
2022/07/07 12:02:52;;;;;;;3.73;1.60;;;;;;;;;;4957196;29;20531;-64
2022/07/07 12:05:20;;;;;;;2.47;1.37;;;;;;;;;;4956863;29;20932;-63
2022/07/07 12:07:53;;;;;;;1.60;1.50;;;;;;;;;;4956697;29;20440;-64
2022/07/07 12:10:23;;;;;;;4.80;1.97;;;;;;;;;;4957003;29;20562;-63
2022/07/07 12:12:57;;;;;;;2.60;1.30;;;;;;;;;;4956993;29;20533;-63
2022/07/07 12:15:24;;;;;;;3.93;1.70;;;;;;;;;;4956678;29;20443;-63
2022/07/07 12:17:51;;;;;;;4.40;1.80;;;;;;;;;;4957096;28;20446;-63
2022/07/07 12:20:19;;;;;;;1.53;1.30;;;;;;;;;;4955492;29;20466;-64
2022/07/07 12:22:51;;;;;;;3.70;2.10;;;;;;;;;;4956582;29;20959;-64
2022/07/07 12:25:18;;;;;;;1.60;1.50;;;;;;;;;;4956484;29;20503;-63
2022/07/07 12:27:57;;;;;;;1.93;1.60;;;;;;;;;;4957468;29;20832;-64
2022/07/07 12:30:26;;;;;;;2.40;1.37;;;;;;;;;;4956248;29;20563;-64
2022/07/07 12:32:53;;;;;;;3.03;1.67;;;;;;;;;;4956394;29;20534;-63
2022/07/07 12:35:27;;;;;;;2.00;1.57;;;;;;;;;;4956588;29;20530;-63
2022/07/07 12:37:54;;;;;;;1.70;1.57;;;;;;;;;;4956311;29;20443;-63
2022/07/07 12:40:22;;;;;;;2.13;1.50;;;;;;;;;;4956472;29;20449;-64
2022/07/07 12:42:50;;;;;;;2.00;1.33;;;;;;;;;;4956479;29;20857;-63
2022/07/07 12:45:19;;;;;;;1.57;1.47;;;;;;;;;;4956368;29;20454;-64
2022/07/07 12:47:47;;;;;;;3.37;1.40;;;;;;;;;;4956458;29;20802;-63
2022/07/07 12:50:14;;;;;;;1.30;1.20;;;;;;;;;;4956276;29;20903;-63
2022/07/07 12:52:42;;;;;;;4.93;1.80;;;;;;;;;;4956048;29;21029;-63
2022/07/07 12:55:10;;;;;;;3.57;1.40;;;;;;;;;;4955597;29;20479;-67
2022/07/07 12:57:37;;;;;;;1.50;1.40;;;;;;;;;;4956453;29;20520;-63
2022/07/07 13:00:05;;;;;;;3.73;1.37;;;;;;;;;;4956396;29;20836;-64
2022/07/07 13:02:34;;;;;;;2.63;1.40;;;;;;;;;;4955852;29;20452;-63
2022/07/07 13:05:01;;;;;;;1.70;1.50;;;;;;;;;;4956110;29;20443;-64
2022/07/07 13:07:28;;;;;;;3.67;1.53;;;;;;;;;;4955776;29;20537;-63
2022/07/07 13:09:56;;;;;;;1.93;1.60;;;;;;;;;;4955563;29;21015;-64
2022/07/07 13:12:23;;;;;;;2.93;2.00;;;;;;;;;;4955932;29;20459;-64
2022/07/07 13:14:50;;;;;;;2.23;1.67;;;;;;;;;;4954200;29;20533;-64
2022/07/07 13:17:18;;;;;;;1.70;1.60;;;;;;;;;;4955506;29;20537;-64
2022/07/07 13:19:47;;;;;;;4.03;2.67;;;;;;;;;;4955317;29;20450;-64
2022/07/07 13:22:14;;;;;;;4.10;3.70;;;;;;;;;;4955907;29;20598;-64
2022/07/07 13:24:41;;;;;;;2.80;2.13;;;;;;;;;;4955625;29;20954;-64
2022/07/07 13:27:09;;;;;;;1.97;1.77;;;;;;;;;;4955603;29;20541;-64
2022/07/07 13:29:36;;;;;;;4.40;2.17;;;;;;;;;;4955486;28;20538;-64
2022/07/07 13:32:03;;;;;;;2.53;2.00;;;;;;;;;;4955099;29;21077;-63
2022/07/07 13:34:30;;;;;;;5.07;2.40;;;;;;;;;;4955160;29;20449;-64
2022/07/07 13:36:59;;;;;;;2.53;2.33;;;;;;;;;;4954406;29;20443;-64
2022/07/07 13:39:26;;;;;;;2.60;2.13;;;;;;;;;;4955338;29;20541;-64
2022/07/07 13:41:54;;;;;;;2.70;1.80;;;;;;;;;;4954594;29;20470;-64
2022/07/07 13:44:21;;;;;;;3.23;2.40;;;;;;;;;;4955523;29;20940;-65
2022/07/07 13:46:49;;;;;;;5.07;2.50;;;;;;;;;;4955132;29;20990;-64
2022/07/07 13:49:16;;;;;;;4.20;2.27;;;;;;;;;;4955440;29;20471;-64
2022/07/07 13:51:43;;;;;;;2.57;2.20;;;;;;;;;;4954885;29;20516;-64
2022/07/07 13:54:12;;;;;;;2.93;2.30;;;;;;;;;;4954978;29;20569;-64
2022/07/07 13:56:39;;;;;;;4.03;2.70;;;;;;;;;;4955370;29;20501;-64
2022/07/07 13:59:06;;;;;;;3.23;2.57;;;;;;;;;;4955006;29;20481;-63
2022/07/07 14:01:33;;;;;;;4.80;3.03;;;;;;;;;;4955072;29;20486;-64
2022/07/07 14:04:01;;;;;;;6.03;2.60;;;;;;;;;;4954988;29;20454;-63
2022/07/07 14:06:29;;;;;;;5.60;2.90;;;;;;;;;;4954880;29;20542;-64
2022/07/07 14:08:56;;;;;;;10.33;3.13;;;;;;;;;;4955254;29;20509;-63
2022/07/07 14:11:25;;;;;;;4.80;3.00;;;;;;;;;;4954652;29;20989;-64
2022/07/07 14:13:52;;;;;;;6.57;3.40;;;;;;;;;;4955527;29;20458;-64
2022/07/07 14:16:19;;;;;;;7.53;3.40;;;;;;;;;;4955143;29;20866;-63
2022/07/07 14:18:46;;;;;;;10.10;3.03;;;;;;;;;;4955330;29;20534;-63
2022/07/07 14:21:14;;;;;;;11.50;3.50;;;;;;;;;;4955103;29;20504;-64
2022/07/07 14:23:41;;;;;;;8.00;3.43;;;;;;;;;;4954713;29;20572;-64
2022/07/07 14:26:09;;;;;;;8.13;3.00;;;;;;;;;;4954741;29;20450;-64
2022/07/07 14:28:38;;;;;;;12.00;2.87;;;;;;;;;;4955370;29;20448;-64
2022/07/07 14:31:06;;;;;;;6.13;2.60;;;;;;;;;;4954818;29;20493;-64
2022/07/07 14:33:33;;;;;;;11.47;3.13;;;;;;;;;;4955053;29;20935;-63
2022/07/07 14:36:00;;;;;;;8.90;3.40;;;;;;;;;;4954919;29;20474;-63
2022/07/07 14:38:27;;;;;;;7.07;3.23;;;;;;;;;;4955274;29;20984;-63
2022/07/07 14:40:54;;;;;;;7.00;2.40;;;;;;;;;;4954578;29;20499;-63
2022/07/07 14:43:22;;;;;;;10.13;2.87;;;;;;;;;;4957197;28;20476;-63
2022/07/07 14:45:50;;;;;;;11.53;3.37;;;;;;;;;;4958233;29;20491;-63
2022/07/07 14:48:19;;;;;;;4.60;2.10;;;;;;;;;;4958482;29;20534;-63
2022/07/07 14:50:46;;;;;;;6.10;2.40;;;;;;;;;;4957955;29;20482;-63
2022/07/07 14:53:13;;;;;;;7.97;2.50;;;;;;;;;;4958148;29;20538;-63
2022/07/07 14:55:40;;;;;;;4.23;2.27;;;;;;;;;;4958328;29;20562;-63
2022/07/07 14:58:07;;;;;;;4.73;2.60;;;;;;;;;;4958069;29;20452;-63
2022/07/07 15:00:35;;;;;;;9.60;2.70;;;;;;;;;;4958597;29;20535;-63
2022/07/07 15:03:03;;;;;;;6.43;2.23;;;;;;;;;;4958175;29;20517;-63
2022/07/07 15:05:31;;;;;;;6.73;2.07;;;;;;;;;;4958114;29;20447;-64
2022/07/07 15:07:58;;;;;;;4.53;2.47;;;;;;;;;;4958088;29;20443;-64
2022/07/07 15:10:25;;;;;;;7.30;2.50;;;;;;;;;;4958148;29;20527;-63
2022/07/07 15:12:52;;;;;;;5.40;2.40;;;;;;;;;;4958082;29;20542;-63
2022/07/07 15:15:20;;;;;;;6.50;2.10;;;;;;;;;;4957921;29;20527;-64
2022/07/07 15:17:47;;;;;;;9.33;2.63;;;;;;;;;;4957325;29;20483;-63
2022/07/07 15:20:17;;;;;;;9.07;2.40;;;;;;;;;;4958198;29;20911;-63
2022/07/07 15:22:44;;;;;;;11.30;3.23;;;;;;;;;;4957374;29;20451;-64
2022/07/07 15:25:13;;;;;;;7.40;3.50;;;;;;;;;;4957316;29;20517;-64
2022/07/07 15:27:41;;;;;;;11.83;2.27;;;;;;;;;;4957541;29;20502;-63
2022/07/07 15:30:08;;;;;;;5.57;2.30;;;;;;;;;;4957395;29;20447;-63
2022/07/07 15:32:36;;;;;;;5.80;2.30;;;;;;;;;;4957218;29;20484;-63
2022/07/07 15:35:03;;;;;;;7.17;2.80;;;;;;;;;;4957786;29;20480;-63
2022/07/07 15:37:31;;;;;;;6.80;2.30;;;;;;;;;;4957319;29;20519;-63
2022/07/07 15:39:59;;;;;;;10.80;3.27;;;;;;;;;;4957395;29;20444;-63
2022/07/07 15:42:26;;;;;;;8.23;2.63;;;;;;;;;;4957593;29;20474;-63
2022/07/07 15:44:55;;;;;;;6.77;2.30;;;;;;;;;;4957543;29;20543;-63
2022/07/07 15:47:22;;;;;;;8.57;2.50;;;;;;;;;;4957190;29;20495;-63
2022/07/07 15:49:49;;;;;;;9.00;2.80;;;;;;;;;;4957911;29;20497;-63
2022/07/07 15:52:17;;;;;;;9.80;3.50;;;;;;;;;;4957374;29;20901;-63
2022/07/07 15:54:45;;;;;;;9.57;2.97;;;;;;;;;;4956767;28;20485;-63
2022/07/07 15:57:12;;;;;;;6.87;2.50;;;;;;;;;;4957005;29;20533;-63
2022/07/07 15:59:40;;;;;;;7.43;2.57;;;;;;;;;;4957584;29;20586;-63
2022/07/07 16:02:08;;;;;;;7.40;2.43;;;;;;;;;;4956849;29;20445;-64
2022/07/07 16:04:36;;;;;;;8.17;2.53;;;;;;;;;;4957758;29;20810;-63
2022/07/07 16:07:04;;;;;;;16.23;2.90;;;;;;;;;;4957122;29;20480;-64
2022/07/07 16:09:31;;;;;;;9.47;2.83;;;;;;;;;;4957136;29;20541;-63
2022/07/07 16:12:00;;;;;;;5.23;2.37;;;;;;;;;;4956879;29;20515;-63
2022/07/07 16:14:27;;;;;;;7.10;2.60;;;;;;;;;;4956962;29;20876;-63
2022/07/07 16:16:55;;;;;;;10.83;2.43;;;;;;;;;;4956874;29;20610;-64
2022/07/07 16:19:22;;;;;;;4.63;2.33;;;;;;;;;;4956951;29;20534;-63
2022/07/07 16:21:49;;;;;;;14.80;3.37;;;;;;;;;;4956814;29;20859;-65
2022/07/07 16:24:16;;;;;;;12.20;2.60;;;;;;;;;;4956812;29;20558;-65
2022/07/07 16:26:45;;;;;;;10.73;4.23;;;;;;;;;;4956800;29;20544;-63
2022/07/07 16:29:13;;;;;;;16.37;4.00;;;;;;;;;;4956683;29;20445;-63
2022/07/07 16:31:41;;;;;;;8.33;2.93;;;;;;;;;;4956627;29;20578;-63
2022/07/07 16:34:09;;;;;;;6.73;2.57;;;;;;;;;;4956558;29;20457;-63
2022/07/07 16:36:37;;;;;;;6.20;3.00;;;;;;;;;;4956593;29;20452;-63
2022/07/07 16:39:05;;;;;;;10.53;2.70;;;;;;;;;;4954865;29;20533;-63
2022/07/07 16:41:32;;;;;;;9.00;2.53;;;;;;;;;;4956434;29;20457;-63
2022/07/07 16:43:59;;;;;;;8.67;3.03;;;;;;;;;;4956193;29;20529;-63
2022/07/07 16:46:29;;;;;;;9.53;2.90;;;;;;;;;;4955956;29;20442;-63
2022/07/07 16:48:57;;;;;;;9.23;3.40;;;;;;;;;;4955859;29;20450;-63
2022/07/07 16:51:24;;;;;;;5.50;2.87;;;;;;;;;;4956106;29;20529;-63
2022/07/07 16:53:51;;;;;;;8.33;2.90;;;;;;;;;;4955588;29;20466;-64
2022/07/07 16:56:18;;;;;;;8.93;3.30;;;;;;;;;;4956625;29;20526;-64
2022/07/07 16:58:47;;;;;;;4.50;2.50;;;;;;;;;;4955572;29;20458;-63
2022/07/07 17:01:14;;;;;;;6.73;2.50;;;;;;;;;;4955585;29;20453;-63
2022/07/07 17:03:43;;;;;;;10.57;3.33;;;;;;;;;;4955610;29;20447;-63
2022/07/07 17:06:10;;;;;;;6.23;2.00;;;;;;;;;;4955218;28;20535;-63
2022/07/07 17:08:37;;;;;;;4.07;2.10;;;;;;;;;;4955582;29;20459;-63
2022/07/07 17:11:05;;;;;;;10.77;3.13;;;;;;;;;;4955392;29;20538;-64
2022/07/07 17:13:32;;;;;;;8.20;2.23;;;;;;;;;;4955295;29;20479;-63
2022/07/07 17:15:59;;;;;;;10.30;4.70;;;;;;;;;;4955442;29;20492;-63
2022/07/07 17:18:27;;;;;;;10.93;2.80;;;;;;;;;;4955558;29;20471;-64
2022/07/07 17:20:56;;;;;;;4.77;2.20;;;;;;;;;;4955617;29;20460;-63
2022/07/07 17:23:23;;;;;;;5.53;2.33;;;;;;;;;;4955478;29;20800;-64
2022/07/07 17:25:51;;;;;;;8.77;2.73;;;;;;;;;;4955560;29;20474;-63
2022/07/07 17:28:18;;;;;;;7.90;2.47;;;;;;;;;;4955183;29;20964;-64
2022/07/07 17:30:45;;;;;;;12.33;2.90;;;;;;;;;;4955312;29;20449;-64
2022/07/07 17:33:13;;;;;;;3.03;2.40;;;;;;;;;;4955409;29;20569;-64
2022/07/07 17:35:40;;;;;;;6.17;2.37;;;;;;;;;;4955343;29;20861;-64
2022/07/07 17:38:08;;;;;;;7.33;2.53;;;;;;;;;;4955241;29;20442;-63
2022/07/07 17:40:36;;;;;;;7.47;3.20;;;;;;;;;;4955450;29;20539;-63
2022/07/07 17:43:03;;;;;;;7.20;2.97;;;;;;;;;;4954848;29;20947;-64
2022/07/07 17:45:30;;;;;;;4.73;2.83;;;;;;;;;;4953724;29;20490;-64
2022/07/07 17:47:57;;;;;;;6.40;2.80;;;;;;;;;;4955274;29;20478;-64
2022/07/07 17:50:24;;;;;;;10.50;2.33;;;;;;;;;;4955338;29;20443;-63
2022/07/07 17:52:52;;;;;;;4.83;2.53;;;;;;;;;;4955353;29;20572;-64
2022/07/07 17:55:20;;;;;;;7.67;2.60;;;;;;;;;;4955299;29;20478;-64
2022/07/07 17:57:47;;;;;;;11.30;2.70;;;;;;;;;;4955319;29;20545;-63
2022/07/07 18:00:15;;;;;;;5.43;2.17;;;;;;;;;;4955231;29;20534;-63
2022/07/07 18:02:42;;;;;;;6.30;2.10;;;;;;;;;;4954907;29;20537;-64
2022/07/07 18:05:10;;;;;;;9.90;2.90;;;;;;;;;;4955075;29;20529;-64
2022/07/07 18:07:37;;;;;;;6.93;2.63;;;;;;;;;;4955251;29;20853;-64
2022/07/07 18:10:04;;;;;;;5.93;3.90;;;;;;;;;;4955280;29;20449;-64
2022/07/07 18:12:33;;;;;;;4.03;2.73;;;;;;;;;;4955261;29;20579;-63
2022/07/07 18:15:00;;;;;;;3.90;2.20;;;;;;;;;;4954608;29;20457;-64
2022/07/07 18:17:27;;;;;;;6.20;2.90;;;;;;;;;;4957846;28;20539;-63
2022/07/07 18:19:55;;;;;;;7.87;2.60;;;;;;;;;;4958561;29;20455;-63
2022/07/07 18:22:22;;;;;;;7.13;2.37;;;;;;;;;;4958985;29;20486;-64
2022/07/07 18:24:49;;;;;;;19.13;2.70;;;;;;;;;;4958837;29;20486;-63
2022/07/07 18:27:16;;;;;;;8.53;2.20;;;;;;;;;;4958249;29;20446;-63
2022/07/07 18:29:45;;;;;;;8.17;2.47;;;;;;;;;;4958344;29;20539;-64
2022/07/07 18:32:12;;;;;;;10.50;2.67;;;;;;;;;;4958729;29;20919;-63
2022/07/07 18:34:40;;;;;;;8.83;2.30;;;;;;;;;;4958335;29;20971;-64
2022/07/07 18:37:07;;;;;;;9.60;2.23;;;;;;;;;;4958220;29;20460;-63
2022/07/07 18:39:34;;;;;;;5.30;2.43;;;;;;;;;;4958543;29;20491;-64
2022/07/07 18:42:01;;;;;;;9.07;4.93;;;;;;;;;;4958354;29;20460;-63
2022/07/07 18:44:28;;;;;;;6.67;2.50;;;;;;;;;;4958820;29;20444;-64
2022/07/07 18:46:57;;;;;;;11.27;2.20;;;;;;;;;;4958089;29;20945;-63
2022/07/07 18:49:24;;;;;;;8.03;2.37;;;;;;;;;;4957930;29;20991;-64
2022/07/07 18:51:51;;;;;;;5.07;2.10;;;;;;;;;;4957983;29;20509;-63
2022/07/07 18:54:19;;;;;;;6.80;2.10;;;;;;;;;;4958038;29;20481;-63
2022/07/07 18:56:46;;;;;;;6.83;2.40;;;;;;;;;;4958015;29;20452;-63
2022/07/07 18:59:15;;;;;;;6.10;2.10;;;;;;;;;;4958154;29;20446;-64
2022/07/07 19:01:42;;;;;;;8.90;2.50;;;;;;;;;;4958569;29;20807;-63
2022/07/07 19:04:13;;;;;;;7.57;2.43;;;;;;;;;;4957812;29;20478;-64
2022/07/07 19:06:40;;;;;;;5.97;2.67;;;;;;;;;;4958521;29;20458;-64
2022/07/07 19:09:08;;;;;;;4.67;2.10;;;;;;;;;;4957980;29;20505;-65
2022/07/07 19:11:35;;;;;;;6.87;2.30;;;;;;;;;;4958061;29;20442;-63
2022/07/07 19:14:02;;;;;;;7.73;2.40;;;;;;;;;;4958049;29;20453;-64
2022/07/07 19:16:29;;;;;;;6.33;2.07;;;;;;;;;;4957479;29;20530;-63
2022/07/07 19:18:57;;;;;;;7.03;2.60;;;;;;;;;;4957908;29;20480;-63
2022/07/07 19:21:25;;;;;;;6.80;2.13;;;;;;;;;;4957404;29;20542;-64
2022/07/07 19:23:52;;;;;;;6.10;2.70;;;;;;;;;;4957581;29;20458;-63
2022/07/07 19:26:20;;;;;;;8.17;2.37;;;;;;;;;;4957844;29;20447;-63
2022/07/07 19:28:47;;;;;;;5.00;2.30;;;;;;;;;;4956815;28;20448;-63
2022/07/07 19:31:15;;;;;;;7.63;3.20;;;;;;;;;;4957543;29;20529;-63
2022/07/07 19:33:43;;;;;;;7.53;2.13;;;;;;;;;;4957649;29;20845;-63
2022/07/07 19:36:10;;;;;;;7.07;2.20;;;;;;;;;;4957302;29;20492;-63
2022/07/07 19:38:39;;;;;;;9.80;2.50;;;;;;;;;;4957680;29;20454;-63
2022/07/07 19:41:07;;;;;;;8.67;2.83;;;;;;;;;;4957573;29;20457;-64
2022/07/07 19:43:34;;;;;;;10.03;2.07;;;;;;;;;;4957307;29;20454;-63
2022/07/07 19:46:02;;;;;;;6.23;3.33;;;;;;;;;;4957429;29;20539;-64
2022/07/07 19:48:29;;;;;;;6.13;3.00;;;;;;;;;;4957250;29;20446;-63
2022/07/07 19:50:56;;;;;;;8.17;2.53;;;;;;;;;;4957082;29;20491;-64
2022/07/07 19:53:24;;;;;;;9.37;2.33;;;;;;;;;;4956909;29;20529;-63
2022/07/07 19:55:52;;;;;;;4.33;2.17;;;;;;;;;;4956808;29;20475;-64
2022/07/07 19:58:20;;;;;;;7.50;2.23;;;;;;;;;;4957369;29;20453;-63
2022/07/07 20:00:47;;;;;;;8.40;2.30;;;;;;;;;;4956880;29;20451;-64
2022/07/07 20:03:14;;;;;;;7.53;2.73;;;;;;;;;;4956954;29;20446;-63
2022/07/07 20:05:42;;;;;;;6.43;2.53;;;;;;;;;;4957128;29;20476;-63
2022/07/07 20:08:09;;;;;;;8.33;2.23;;;;;;;;;;4956891;29;20982;-63
2022/07/07 20:10:36;;;;;;;6.30;2.47;;;;;;;;;;4957070;29;20450;-64
2022/07/07 20:13:05;;;;;;;7.60;2.70;;;;;;;;;;4957034;29;20485;-63
2022/07/07 20:15:32;;;;;;;5.20;1.90;;;;;;;;;;4956653;29;20460;-63
2022/07/07 20:18:00;;;;;;;4.87;2.50;;;;;;;;;;4956942;29;20446;-62
2022/07/07 20:20:27;;;;;;;8.57;1.80;;;;;;;;;;4955478;29;20535;-63
2022/07/07 20:22:55;;;;;;;6.37;2.40;;;;;;;;;;4956749;29;20538;-63
2022/07/07 20:25:22;;;;;;;9.20;2.53;;;;;;;;;;4954879;28;20487;-63
2022/07/07 20:27:49;;;;;;;6.87;3.30;;;;;;;;;;4956292;29;20463;-62
2022/07/07 20:30:18;;;;;;;5.00;2.13;;;;;;;;;;4956474;29;20494;-63
2022/07/07 20:32:45;;;;;;;7.37;2.27;;;;;;;;;;4956385;29;20562;-63
2022/07/07 20:35:13;;;;;;;13.23;2.63;;;;;;;;;;4956062;29;20529;-64
2022/07/07 20:37:40;;;;;;;5.50;2.43;;;;;;;;;;4956338;29;20439;-64
2022/07/07 20:40:08;;;;;;;5.63;2.17;;;;;;;;;;4955239;28;20454;-64
2022/07/07 20:42:36;;;;;;;8.80;2.33;;;;;;;;;;4956280;29;20801;-64
2022/07/07 20:45:03;;;;;;;8.87;2.70;;;;;;;;;;4956013;29;20464;-64
2022/07/07 20:47:32;;;;;;;4.73;2.23;;;;;;;;;;4955919;29;20448;-63
2022/07/07 20:49:59;;;;;;;9.77;3.03;;;;;;;;;;4956183;29;20863;-64
2022/07/07 20:52:26;;;;;;;11.03;3.10;;;;;;;;;;4955428;29;20524;-64
2022/07/07 20:54:54;;;;;;;8.23;2.70;;;;;;;;;;4955783;29;20474;-63
2022/07/07 20:57:21;;;;;;;7.60;2.77;;;;;;;;;;4955548;29;20935;-64
2022/07/07 20:59:48;;;;;;;6.00;2.50;;;;;;;;;;4955901;29;20545;-65
2022/07/07 21:02:15;;;;;;;6.47;2.30;;;;;;;;;;4955480;29;21014;-64
2022/07/07 21:04:44;;;;;;;6.73;1.90;;;;;;;;;;4955824;29;20544;-64
2022/07/07 21:07:12;;;;;;;12.57;2.67;;;;;;;;;;4955546;29;20444;-64
2022/07/07 21:09:41;;;;;;;7.43;3.40;;;;;;;;;;4955627;29;20535;-65
2022/07/07 21:12:09;;;;;;;5.47;2.90;;;;;;;;;;4955400;29;20448;-65
2022/07/07 21:14:36;;;;;;;3.30;1.97;;;;;;;;;;4955629;29;20581;-64
2022/07/07 21:17:04;;;;;;;3.63;2.40;;;;;;;;;;4955645;29;20866;-65
2022/07/07 21:19:32;;;;;;;9.30;2.70;;;;;;;;;;4955437;29;20525;-64
2022/07/07 21:22:01;;;;;;;10.00;3.23;;;;;;;;;;4955579;29;20454;-64
2022/07/07 21:24:28;;;;;;;6.70;2.10;;;;;;;;;;4955187;29;20559;-64
2022/07/07 21:26:56;;;;;;;6.50;2.30;;;;;;;;;;4955023;29;20542;-65
2022/07/07 21:29:23;;;;;;;4.23;2.20;;;;;;;;;;4955528;29;20783;-64
2022/07/07 21:31:51;;;;;;;5.40;2.37;;;;;;;;;;4955180;29;20451;-64
2022/07/07 21:34:18;;;;;;;8.33;2.40;;;;;;;;;;4955061;29;20616;-65
2022/07/07 21:36:46;;;;;;;6.83;3.07;;;;;;;;;;4955197;29;20448;-63
2022/07/07 21:39:15;;;;;;;3.93;2.37;;;;;;;;;;4955536;29;20814;-65
2022/07/07 21:41:43;;;;;;;6.63;2.53;;;;;;;;;;4955271;29;20487;-65
2022/07/07 21:44:11;;;;;;;5.43;2.20;;;;;;;;;;4955042;29;20542;-63
2022/07/07 21:46:39;;;;;;;5.00;1.93;;;;;;;;;;4955275;29;20453;-64
2022/07/07 21:49:06;;;;;;;7.23;2.43;;;;;;;;;;4955298;29;20464;-65
2022/07/07 21:51:34;;;;;;;8.53;2.50;;;;;;;;;;4954724;29;20984;-63
2022/07/07 21:54:02;;;;;;;6.17;2.30;;;;;;;;;;4954893;29;20987;-64
2022/07/07 21:56:32;;;;;;;6.10;2.20;;;;;;;;;;4955100;29;20866;-63
2022/07/07 21:59:00;;;;;;;2.53;2.00;;;;;;;;;;4955349;29;20785;-63
2022/07/07 22:01:27;;;;;;;6.63;2.20;;;;;;;;;;4955164;29;20481;-63
2022/07/07 22:09:24;;;;;;;3.53;1.97;;;;;;;;;;4955190;29;20417;-64
2022/07/07 22:11:53;;;;;;;3.90;2.00;;;;;;;;;;4955355;29;20538;-65
2022/07/07 22:14:20;;;;;;;6.03;1.90;;;;;;;;;;4955636;29;20568;-63
2022/07/07 22:16:47;;;;;;;6.40;2.40;;;;;;;;;;4955080;29;20447;-64
2022/07/07 22:19:15;;;;;;;4.53;1.80;;;;;;;;;;4955289;29;20856;-64
2022/07/07 22:21:42;;;;;;;6.90;2.40;;;;;;;;;;4954941;29;20446;-64
2022/07/07 22:24:10;;;;;;;6.37;2.30;;;;;;;;;;4955367;29;21020;-65
2022/07/07 22:26:37;;;;;;;6.00;2.23;;;;;;;;;;4955225;29;20881;-64
2022/07/07 22:29:06;;;;;;;5.37;2.20;;;;;;;;;;4954953;29;20443;-64
2022/07/07 22:31:33;;;;;;;6.30;2.30;;;;;;;;;;4954822;29;20517;-64
2022/07/07 22:34:02;;;;;;;6.03;2.20;;;;;;;;;;4954785;29;20484;-64
2022/07/07 22:36:29;;;;;;;6.07;2.00;;;;;;;;;;4955104;29;20480;-64
2022/07/07 22:38:56;;;;;;;7.83;2.43;;;;;;;;;;4954695;29;20488;-65
2022/07/07 22:41:24;;;;;;;3.90;1.73;;;;;;;;;;4954658;29;20439;-64
2022/07/07 22:43:51;;;;;;;10.03;3.20;;;;;;;;;;4954883;29;20577;-64
2022/07/07 22:46:19;;;;;;;7.73;2.80;;;;;;;;;;4954619;29;20482;-64
2022/07/07 22:48:47;;;;;;;10.70;3.87;;;;;;;;;;4954836;29;20534;-64
2022/07/07 22:51:14;;;;;;;12.20;4.03;;;;;;;;;;4954955;29;20529;-63
2022/07/07 22:53:42;;;;;;;3.73;2.33;;;;;;;;;;4954400;29;20580;-64
2022/07/07 22:56:10;;;;;;;9.60;2.80;;;;;;;;;;4954975;29;20535;-64
2022/07/07 22:58:37;;;;;;;4.30;2.93;;;;;;;;;;4954717;29;20544;-65
2022/07/07 23:01:05;;;;;;;6.90;2.13;;;;;;;;;;4954846;29;20875;-63
2022/07/07 23:03:34;;;;;;;4.67;1.97;;;;;;;;;;4955810;28;20455;-65
2022/07/07 23:06:02;;;;;;;9.27;3.00;;;;;;;;;;4957902;29;20537;-63
2022/07/07 23:08:29;;;;;;;9.33;2.20;;;;;;;;;;4958045;29;20548;-65
2022/07/07 23:10:56;;;;;;;6.27;2.47;;;;;;;;;;4957947;29;20639;-64
2022/07/07 23:13:23;;;;;;;9.33;2.07;;;;;;;;;;4957626;29;20480;-64
2022/07/07 23:15:51;;;;;;;3.40;2.00;;;;;;;;;;4958054;29;20905;-64
2022/07/07 23:18:18;;;;;;;5.27;2.07;;;;;;;;;;4957796;29;20447;-64
2022/07/07 23:20:47;;;;;;;6.57;2.00;;;;;;;;;;4957865;29;20446;-64
2022/07/07 23:23:14;;;;;;;8.47;2.73;;;;;;;;;;4956972;29;20460;-64
2022/07/07 23:25:41;;;;;;;9.90;2.70;;;;;;;;;;4957841;29;20538;-63
2022/07/07 23:28:08;;;;;;;9.37;3.50;;;;;;;;;;4957931;29;20581;-64
2022/07/07 23:30:36;;;;;;;4.70;2.10;;;;;;;;;;4957409;29;20934;-64
2022/07/07 23:33:03;;;;;;;7.30;2.40;;;;;;;;;;4957458;29;20498;-66
2022/07/07 23:35:30;;;;;;;6.07;2.40;;;;;;;;;;4957965;29;20574;-66
2022/07/07 23:37:59;;;;;;;12.93;3.10;;;;;;;;;;4957765;29;20484;-64
2022/07/07 23:40:27;;;;;;;5.47;2.00;;;;;;;;;;4957635;29;20531;-63
2022/07/07 23:42:54;;;;;;;9.87;2.83;;;;;;;;;;4957013;29;20958;-64
2022/07/07 23:45:21;;;;;;;9.53;2.30;;;;;;;;;;4957402;29;20491;-64
2022/07/07 23:47:49;;;;;;;7.33;2.20;;;;;;;;;;4957527;29;20443;-65